Spokane International Airport
KGEG : rendu visible

Aérodrome :











RETROUVEZ-NOUS SUR...

 
LOGIN :

S'inscrire | Disclaimer

   EN    FR    IT 

 









Légende :    VFR   VFR Marginal   IFR   IFR Intensif   IFR Très Intensif
Visi : 
Plafond : 
>= 8 km
>= 3000ft
5 à 8 km
1000 à 3000 ft
1500m à 5 km
500 à 1000 ft
800 à 1500m
200 à 500 ft
< 800m
< 200 ft
Symboles :   Orages  Brouillard  Fortes neiges  Fortes précipitations  Vent > 20 kt






- Altitude de l'aérodrome : 2376 ft
- Code IATA : GEG


KGEG - Spokane International

DERNIER METAR :
  • 071353Z 19009KT 10SM FEW130 FEW160 SCT250 02/M03 A2998 RMK AO2 SLP160 VIRGA T00221028

METARs EXPIRÉS :
  • 071253Z 19010KT 10SM FEW080 FEW120 SCT160 SCT250 02/M03 A2995 RMK AO2 SLP151 T00171033
  • 071153Z 19007KT 10SM FEW080 SCT220 02/M04 A2994 RMK AO2 SLP144 T00221039 10083 20022 51017

TAF KGEG
Valide du 07 à 12h jusqu'au 08 à 12h UTC


071201Z 0712/0812 20010KT P6SM FEW080 SCT200
FM072000 23012G18KT P6SM FEW060 FEW200
FM080200 23006KT P6SM FEW200



MET'MAP, la Météo Aéronautique d'un coup d'oeil ! - Copyright ORBIFLY Décembre 2007 - Disclaimer

ORBIFLY MET'MAP TEAM :

Programmation & Développement : Alexandra Zaïnal
Sur une idée originale de : Baudouin d'Aumeries
Assistance à la programmation : Marc-Olivier Méhu
Soutien technique & logistique : Manuel Goepfert

Contact : metmap@orbifly.com




SOURCES & CREDITS :

   NOAA       Earth
Advisory